sensor_id;sensor_type;location;lat;lon;timestamp;pressure;altitude;pressure_sealevel;temperature;humidity
12471;BME280;36499;46.484;13.832;2022-09-13T00:01:35;93100.50;;;13.52;78.72
12471;BME280;36499;46.484;13.832;2022-09-13T00:04:02;93100.38;;;13.58;78.33
12471;BME280;36499;46.484;13.832;2022-09-13T00:06:30;93092.06;;;13.61;78.09
12471;BME280;36499;46.484;13.832;2022-09-13T00:08:57;93096.16;;;13.57;77.47
12471;BME280;36499;46.484;13.832;2022-09-13T00:11:30;93091.50;;;13.48;77.67
12471;BME280;36499;46.484;13.832;2022-09-13T00:13:59;93083.44;;;13.37;78.61
12471;BME280;36499;46.484;13.832;2022-09-13T00:16:28;93083.78;;;13.41;78.45
12471;BME280;36499;46.484;13.832;2022-09-13T00:18:59;93085.91;;;13.44;78.66
12471;BME280;36499;46.484;13.832;2022-09-13T00:21:27;93089.34;;;13.44;78.53
12471;BME280;36499;46.484;13.832;2022-09-13T00:23:55;93092.97;;;13.32;79.38
12471;BME280;36499;46.484;13.832;2022-09-13T00:26:25;93092.44;;;13.18;79.85
12471;BME280;36499;46.484;13.832;2022-09-13T00:28:56;93093.91;;;13.14;80.46
12471;BME280;36499;46.484;13.832;2022-09-13T00:31:25;93093.00;;;13.20;80.70
12471;BME280;36499;46.484;13.832;2022-09-13T00:33:53;93090.94;;;13.34;79.86
12471;BME280;36499;46.484;13.832;2022-09-13T00:36:20;93086.06;;;13.26;80.32
12471;BME280;36499;46.484;13.832;2022-09-13T00:38:47;93087.19;;;13.18;80.77
12471;BME280;36499;46.484;13.832;2022-09-13T00:41:17;93089.00;;;13.18;80.90
12471;BME280;36499;46.484;13.832;2022-09-13T00:43:49;93087.31;;;13.23;80.61
12471;BME280;36499;46.484;13.832;2022-09-13T00:46:29;93086.06;;;13.26;80.22
12471;BME280;36499;46.484;13.832;2022-09-13T00:49:08;93088.22;;;13.29;80.02
12471;BME280;36499;46.484;13.832;2022-09-13T00:51:42;93076.38;;;13.26;80.20
12471;BME280;36499;46.484;13.832;2022-09-13T00:54:16;93080.13;;;13.30;79.30
12471;BME280;36499;46.484;13.832;2022-09-13T00:56:51;93078.66;;;13.34;78.38
12471;BME280;36499;46.484;13.832;2022-09-13T00:59:28;93090.16;;;13.33;78.14
12471;BME280;36499;46.484;13.832;2022-09-13T01:01:59;93081.75;;;13.31;78.00
12471;BME280;36499;46.484;13.832;2022-09-13T01:04:32;93075.38;;;13.27;77.89
12471;BME280;36499;46.484;13.832;2022-09-13T01:07:07;93074.22;;;13.23;77.83
12471;BME280;36499;46.484;13.832;2022-09-13T01:09:46;93064.56;;;13.24;78.24
12471;BME280;36499;46.484;13.832;2022-09-13T01:12:28;93059.31;;;13.24;79.30
12471;BME280;36499;46.484;13.832;2022-09-13T01:15:00;93060.22;;;13.18;79.92
12471;BME280;36499;46.484;13.832;2022-09-13T01:17:34;93058.97;;;13.20;80.19
12471;BME280;36499;46.484;13.832;2022-09-13T01:20:07;93049.41;;;13.26;80.17
12471;BME280;36499;46.484;13.832;2022-09-13T01:23:55;93051.56;;;13.17;79.89
12471;BME280;36499;46.484;13.832;2022-09-13T01:27:17;93054.31;;;13.22;79.75
12471;BME280;36499;46.484;13.832;2022-09-13T01:30:11;93058.41;;;13.18;79.24
12471;BME280;36499;46.484;13.832;2022-09-13T01:33:15;93056.47;;;13.14;79.15
12471;BME280;36499;46.484;13.832;2022-09-13T01:36:00;93056.22;;;13.04;79.72
12471;BME280;36499;46.484;13.832;2022-09-13T01:38:51;93053.03;;;13.02;79.97
12471;BME280;36499;46.484;13.832;2022-09-13T01:42:06;93045.50;;;13.05;80.03
12471;BME280;36499;46.484;13.832;2022-09-13T01:45:01;93050.41;;;13.02;80.03
12471;BME280;36499;46.484;13.832;2022-09-13T01:47:40;93044.50;;;13.06;79.92
12471;BME280;36499;46.484;13.832;2022-09-13T01:50:21;93050.88;;;13.10;79.77
12471;BME280;36499;46.484;13.832;2022-09-13T01:53:00;93047.91;;;13.07;79.43
12471;BME280;36499;46.484;13.832;2022-09-13T01:55:38;93040.72;;;13.02;79.36
12471;BME280;36499;46.484;13.832;2022-09-13T01:58:18;93039.84;;;12.96;79.53
12471;BME280;36499;46.484;13.832;2022-09-13T02:00:55;93040.50;;;12.80;78.63
12471;BME280;36499;46.484;13.832;2022-09-13T02:03:34;93024.69;;;12.64;79.51
12471;BME280;36499;46.484;13.832;2022-09-13T02:06:11;93041.41;;;12.51;81.25
12471;BME280;36499;46.484;13.832;2022-09-13T02:08:45;93042.09;;;12.58;80.85
12471;BME280;36499;46.484;13.832;2022-09-13T02:11:17;93029.91;;;12.64;81.06
12471;BME280;36499;46.484;13.832;2022-09-13T02:13:50;93034.47;;;12.68;80.78
12471;BME280;36499;46.484;13.832;2022-09-13T02:16:30;93030.59;;;12.47;79.57
12471;BME280;36499;46.484;13.832;2022-09-13T02:19:10;93037.19;;;12.50;79.64
12471;BME280;36499;46.484;13.832;2022-09-13T02:21:51;93033.41;;;12.46;81.14
12471;BME280;36499;46.484;13.832;2022-09-13T02:24:29;93039.44;;;12.46;80.65
12471;BME280;36499;46.484;13.832;2022-09-13T02:27:08;93050.56;;;12.42;80.94
12471;BME280;36499;46.484;13.832;2022-09-13T02:29:42;93046.13;;;12.31;82.95
12471;BME280;36499;46.484;13.832;2022-09-13T02:32:16;93052.72;;;12.33;83.34
12471;BME280;36499;46.484;13.832;2022-09-13T02:34:53;93049.84;;;12.23;81.46
12471;BME280;36499;46.484;13.832;2022-09-13T02:37:27;93053.84;;;12.37;80.39
12471;BME280;36499;46.484;13.832;2022-09-13T02:40:03;93050.88;;;12.22;81.18
12471;BME280;36499;46.484;13.832;2022-09-13T02:42:37;93046.41;;;12.11;82.91
12471;BME280;36499;46.484;13.832;2022-09-13T02:45:07;93051.13;;;12.02;83.78
12471;BME280;36499;46.484;13.832;2022-09-13T02:47:50;93056.16;;;12.04;84.37
12471;BME280;36499;46.484;13.832;2022-09-13T02:50:36;93054.97;;;12.30;82.79
12471;BME280;36499;46.484;13.832;2022-09-13T02:53:16;93057.13;;;12.33;82.79
12471;BME280;36499;46.484;13.832;2022-09-13T02:55:59;93055.47;;;12.38;82.53
12471;BME280;36499;46.484;13.832;2022-09-13T02:58:40;93055.56;;;12.32;80.34
12471;BME280;36499;46.484;13.832;2022-09-13T03:01:15;93055.63;;;12.25;80.99
12471;BME280;36499;46.484;13.832;2022-09-13T03:03:42;93054.06;;;12.24;81.24
12471;BME280;36499;46.484;13.832;2022-09-13T03:06:11;93052.13;;;12.20;82.89
12471;BME280;36499;46.484;13.832;2022-09-13T03:08:39;93053.94;;;12.19;83.82
12471;BME280;36499;46.484;13.832;2022-09-13T03:11:14;93047.44;;;12.22;83.73
12471;BME280;36499;46.484;13.832;2022-09-13T03:14:03;93054.19;;;12.29;83.79
12471;BME280;36499;46.484;13.832;2022-09-13T03:16:52;93044.97;;;12.27;81.81
12471;BME280;36499;46.484;13.832;2022-09-13T03:19:42;93046.34;;;11.99;82.33
12471;BME280;36499;46.484;13.832;2022-09-13T03:22:57;93044.13;;;12.15;82.62
12471;BME280;36499;46.484;13.832;2022-09-13T03:25:51;93040.66;;;12.21;81.66
12471;BME280;36499;46.484;13.832;2022-09-13T03:28:35;93036.66;;;12.18;82.42
12471;BME280;36499;46.484;13.832;2022-09-13T03:31:11;93036.78;;;12.23;83.06
12471;BME280;36499;46.484;13.832;2022-09-13T03:33:48;93034.47;;;12.15;80.45
12471;BME280;36499;46.484;13.832;2022-09-13T03:36:24;93029.25;;;12.15;80.26
12471;BME280;36499;46.484;13.832;2022-09-13T03:39:12;93028.47;;;12.15;80.35
12471;BME280;36499;46.484;13.832;2022-09-13T03:41:49;93019.13;;;12.07;80.67
12471;BME280;36499;46.484;13.832;2022-09-13T03:44:22;93020.91;;;11.95;82.10
12471;BME280;36499;46.484;13.832;2022-09-13T03:46:56;93020.63;;;11.85;82.43
12471;BME280;36499;46.484;13.832;2022-09-13T03:49:27;93005.19;;;11.83;82.64
12471;BME280;36499;46.484;13.832;2022-09-13T03:51:55;93011.44;;;11.82;82.68
12471;BME280;36499;46.484;13.832;2022-09-13T03:54:29;93009.38;;;11.84;82.70
12471;BME280;36499;46.484;13.832;2022-09-13T03:57:09;93014.75;;;11.89;82.70
12471;BME280;36499;46.484;13.832;2022-09-13T03:59:40;93023.84;;;11.87;83.35
12471;BME280;36499;46.484;13.832;2022-09-13T04:02:10;93029.72;;;11.82;83.92
12471;BME280;36499;46.484;13.832;2022-09-13T04:04:39;93037.06;;;11.74;85.58
12471;BME280;36499;46.484;13.832;2022-09-13T04:07:07;93021.00;;;11.88;84.57
12471;BME280;36499;46.484;13.832;2022-09-13T04:09:37;93019.88;;;11.96;84.61
12471;BME280;36499;46.484;13.832;2022-09-13T04:12:09;93016.81;;;11.99;84.51
12471;BME280;36499;46.484;13.832;2022-09-13T04:14:39;93010.38;;;12.01;83.77
12471;BME280;36499;46.484;13.832;2022-09-13T04:17:09;93003.50;;;11.89;84.15
12471;BME280;36499;46.484;13.832;2022-09-13T04:19:39;93015.22;;;11.86;83.94
12471;BME280;36499;46.484;13.832;2022-09-13T04:22:09;93022.69;;;11.83;84.24
12471;BME280;36499;46.484;13.832;2022-09-13T04:24:38;93021.75;;;11.77;85.29
12471;BME280;36499;46.484;13.832;2022-09-13T04:27:05;93020.78;;;11.90;84.01
12471;BME280;36499;46.484;13.832;2022-09-13T04:29:33;93030.59;;;11.58;82.21
12471;BME280;36499;46.484;13.832;2022-09-13T04:32:00;93035.97;;;11.63;82.25
12471;BME280;36499;46.484;13.832;2022-09-13T04:34:28;93039.78;;;11.61;82.93
12471;BME280;36499;46.484;13.832;2022-09-13T04:36:55;93042.00;;;11.64;83.94
12471;BME280;36499;46.484;13.832;2022-09-13T04:39:23;93035.16;;;11.63;84.69
12471;BME280;36499;46.484;13.832;2022-09-13T04:41:52;93028.69;;;11.65;85.01
12471;BME280;36499;46.484;13.832;2022-09-13T04:44:23;93023.56;;;11.77;84.68
12471;BME280;36499;46.484;13.832;2022-09-13T04:46:52;93020.44;;;11.86;84.68
12471;BME280;36499;46.484;13.832;2022-09-13T04:49:20;93025.06;;;11.84;81.95
12471;BME280;36499;46.484;13.832;2022-09-13T04:51:47;93021.66;;;11.84;82.90
12471;BME280;36499;46.484;13.832;2022-09-13T04:54:15;93022.81;;;11.88;82.21
12471;BME280;36499;46.484;13.832;2022-09-13T04:56:43;93030.06;;;11.86;82.35
12471;BME280;36499;46.484;13.832;2022-09-13T04:59:12;93019.63;;;11.86;84.36
12471;BME280;36499;46.484;13.832;2022-09-13T05:01:40;93013.16;;;11.88;84.58
12471;BME280;36499;46.484;13.832;2022-09-13T05:04:08;93010.69;;;11.93;84.34
12471;BME280;36499;46.484;13.832;2022-09-13T05:06:36;93015.41;;;11.85;85.06
12471;BME280;36499;46.484;13.832;2022-09-13T05:09:04;93013.06;;;11.95;84.91
12471;BME280;36499;46.484;13.832;2022-09-13T05:11:31;93007.28;;;11.93;85.28
12471;BME280;36499;46.484;13.832;2022-09-13T05:14:00;93008.31;;;12.03;85.73
12471;BME280;36499;46.484;13.832;2022-09-13T05:16:30;93010.59;;;12.00;84.83
12471;BME280;36499;46.484;13.832;2022-09-13T05:18:58;93014.34;;;12.04;84.09
12471;BME280;36499;46.484;13.832;2022-09-13T05:21:27;93013.41;;;11.98;84.03
12471;BME280;36499;46.484;13.832;2022-09-13T05:23:55;93016.59;;;12.00;85.09
12471;BME280;36499;46.484;13.832;2022-09-13T05:26:25;93016.00;;;12.28;86.22
12471;BME280;36499;46.484;13.832;2022-09-13T05:28:54;93015.69;;;12.36;84.36
12471;BME280;36499;46.484;13.832;2022-09-13T05:31:23;93012.03;;;12.37;84.26
12471;BME280;36499;46.484;13.832;2022-09-13T05:33:57;93015.25;;;12.51;84.08
12471;BME280;36499;46.484;13.832;2022-09-13T05:36:24;93012.38;;;12.52;83.60
12471;BME280;36499;46.484;13.832;2022-09-13T05:38:52;93016.41;;;12.55;84.07
12471;BME280;36499;46.484;13.832;2022-09-13T05:41:20;93018.41;;;12.41;85.29
12471;BME280;36499;46.484;13.832;2022-09-13T05:43:47;93000.34;;;12.63;84.65
12471;BME280;36499;46.484;13.832;2022-09-13T05:46:17;93008.91;;;12.82;83.77
12471;BME280;36499;46.484;13.832;2022-09-13T05:48:48;93001.47;;;12.90;83.65
12471;BME280;36499;46.484;13.832;2022-09-13T05:51:19;93002.63;;;12.94;83.41
12471;BME280;36499;46.484;13.832;2022-09-13T05:53:48;93001.13;;;12.98;83.55
12471;BME280;36499;46.484;13.832;2022-09-13T05:56:18;92991.81;;;13.14;83.70
12471;BME280;36499;46.484;13.832;2022-09-13T05:58:48;92988.72;;;13.29;83.06
12471;BME280;36499;46.484;13.832;2022-09-13T06:01:18;92994.69;;;13.53;82.94
12471;BME280;36499;46.484;13.832;2022-09-13T06:03:46;93000.00;;;13.69;82.55
12471;BME280;36499;46.484;13.832;2022-09-13T06:06:14;92990.94;;;13.88;82.61
12471;BME280;36499;46.484;13.832;2022-09-13T06:08:43;92993.25;;;14.02;82.11
12471;BME280;36499;46.484;13.832;2022-09-13T06:11:14;92986.78;;;14.21;81.63
12471;BME280;36499;46.484;13.832;2022-09-13T06:13:41;92986.16;;;14.30;81.16
12471;BME280;36499;46.484;13.832;2022-09-13T06:16:12;92986.44;;;14.46;80.66
12471;BME280;36499;46.484;13.832;2022-09-13T06:18:39;92990.31;;;14.60;80.20
12471;BME280;36499;46.484;13.832;2022-09-13T06:21:09;92987.59;;;14.88;79.84
12471;BME280;36499;46.484;13.832;2022-09-13T06:23:43;92986.16;;;14.97;82.69
12471;BME280;36499;46.484;13.832;2022-09-13T06:26:13;92986.47;;;15.22;79.95
12471;BME280;36499;46.484;13.832;2022-09-13T06:28:41;92985.47;;;15.45;79.21
12471;BME280;36499;46.484;13.832;2022-09-13T06:31:11;92982.28;;;15.43;79.66
12471;BME280;36499;46.484;13.832;2022-09-13T06:33:41;92992.81;;;15.65;78.09
12471;BME280;36499;46.484;13.832;2022-09-13T06:36:12;92991.97;;;15.81;77.34
12471;BME280;36499;46.484;13.832;2022-09-13T06:38:40;92980.88;;;16.01;76.57
12471;BME280;36499;46.484;13.832;2022-09-13T06:41:11;92982.91;;;16.20;76.19
12471;BME280;36499;46.484;13.832;2022-09-13T06:43:40;92991.91;;;16.29;75.91
12471;BME280;36499;46.484;13.832;2022-09-13T06:46:10;92980.44;;;16.41;75.74
12471;BME280;36499;46.484;13.832;2022-09-13T06:48:40;92980.41;;;16.62;75.18
12471;BME280;36499;46.484;13.832;2022-09-13T06:51:11;92987.88;;;16.75;75.16
12471;BME280;36499;46.484;13.832;2022-09-13T06:53:39;92983.78;;;16.95;74.11
12471;BME280;36499;46.484;13.832;2022-09-13T06:56:13;92973.91;;;17.17;74.77
12471;BME280;36499;46.484;13.832;2022-09-13T06:58:45;92974.81;;;17.38;73.68
12471;BME280;36499;46.484;13.832;2022-09-13T07:01:15;92965.38;;;17.52;71.90
12471;BME280;36499;46.484;13.832;2022-09-13T07:03:45;92961.25;;;17.66;71.31
12471;BME280;36499;46.484;13.832;2022-09-13T07:06:15;92971.06;;;17.86;72.34
12471;BME280;36499;46.484;13.832;2022-09-13T07:08:45;92955.56;;;18.04;72.26
12471;BME280;36499;46.484;13.832;2022-09-13T07:11:16;92950.28;;;18.19;70.86
12471;BME280;36499;46.484;13.832;2022-09-13T07:13:47;92955.59;;;18.35;70.01
12471;BME280;36499;46.484;13.832;2022-09-13T07:16:17;92947.72;;;18.55;70.29
12471;BME280;36499;46.484;13.832;2022-09-13T07:18:49;92954.06;;;18.74;70.61
12471;BME280;36499;46.484;13.832;2022-09-13T07:21:17;92947.69;;;18.90;69.33
12471;BME280;36499;46.484;13.832;2022-09-13T07:23:44;92958.25;;;19.05;68.93
12471;BME280;36499;46.484;13.832;2022-09-13T07:26:13;92955.00;;;19.34;68.59
12471;BME280;36499;46.484;13.832;2022-09-13T07:28:42;92945.97;;;19.55;68.02
12471;BME280;36499;46.484;13.832;2022-09-13T07:31:12;92953.00;;;19.75;68.47
12471;BME280;36499;46.484;13.832;2022-09-13T07:33:41;92944.00;;;19.81;65.19
12471;BME280;36499;46.484;13.832;2022-09-13T07:36:11;92938.88;;;20.04;65.75
12471;BME280;36499;46.484;13.832;2022-09-13T07:38:40;92935.09;;;20.10;66.85
12471;BME280;36499;46.484;13.832;2022-09-13T07:41:13;92935.00;;;20.26;64.58
12471;BME280;36499;46.484;13.832;2022-09-13T07:43:41;92933.59;;;20.43;63.66
12471;BME280;36499;46.484;13.832;2022-09-13T07:46:12;92934.00;;;20.61;63.07
12471;BME280;36499;46.484;13.832;2022-09-13T07:48:44;92937.88;;;20.73;63.59
12471;BME280;36499;46.484;13.832;2022-09-13T07:51:16;92939.19;;;20.71;64.61
12471;BME280;36499;46.484;13.832;2022-09-13T07:53:46;92942.69;;;20.66;65.14
12471;BME280;36499;46.484;13.832;2022-09-13T07:56:18;92934.25;;;20.59;62.65
12471;BME280;36499;46.484;13.832;2022-09-13T07:58:48;92938.59;;;20.79;62.88
12471;BME280;36499;46.484;13.832;2022-09-13T08:01:19;92931.19;;;21.04;61.27
12471;BME280;36499;46.484;13.832;2022-09-13T08:03:51;92939.91;;;21.10;62.07
12471;BME280;36499;46.484;13.832;2022-09-13T08:06:25;92937.94;;;21.26;60.77
12471;BME280;36499;46.484;13.832;2022-09-13T08:08:54;92932.56;;;21.54;62.30
12471;BME280;36499;46.484;13.832;2022-09-13T08:11:26;92933.44;;;21.69;62.04
12471;BME280;36499;46.484;13.832;2022-09-13T08:13:54;92936.78;;;21.79;58.83
12471;BME280;36499;46.484;13.832;2022-09-13T08:16:24;92923.84;;;21.96;59.62
12471;BME280;36499;46.484;13.832;2022-09-13T08:19:00;92918.50;;;21.54;57.21
12471;BME280;36499;46.484;13.832;2022-09-13T08:21:33;92919.91;;;21.70;57.50
12471;BME280;36499;46.484;13.832;2022-09-13T08:24:02;92924.41;;;21.93;56.11
12471;BME280;36499;46.484;13.832;2022-09-13T08:26:32;92917.19;;;22.18;56.51
12471;BME280;36499;46.484;13.832;2022-09-13T08:29:02;92917.09;;;22.23;55.72
12471;BME280;36499;46.484;13.832;2022-09-13T08:31:34;92915.88;;;21.96;54.60
12471;BME280;36499;46.484;13.832;2022-09-13T08:34:02;92913.75;;;21.98;55.82
12471;BME280;36499;46.484;13.832;2022-09-13T08:36:30;92905.41;;;22.24;55.86
12471;BME280;36499;46.484;13.832;2022-09-13T08:38:59;92902.09;;;22.32;54.47
12471;BME280;36499;46.484;13.832;2022-09-13T08:44:54;92905.19;;;22.20;54.18
12471;BME280;36499;46.484;13.832;2022-09-13T08:47:37;92901.34;;;22.64;54.35
12471;BME280;36499;46.484;13.832;2022-09-13T08:50:16;92892.50;;;22.49;53.21
12471;BME280;36499;46.484;13.832;2022-09-13T08:52:59;92889.56;;;22.51;53.30
12471;BME280;36499;46.484;13.832;2022-09-13T08:55:53;92890.84;;;22.72;52.98
12471;BME280;36499;46.484;13.832;2022-09-13T08:59:04;92887.56;;;22.94;52.08
12471;BME280;36499;46.484;13.832;2022-09-13T09:01:54;92877.31;;;23.15;52.11
12471;BME280;36499;46.484;13.832;2022-09-13T09:04:44;92880.50;;;23.17;50.44
12471;BME280;36499;46.484;13.832;2022-09-13T09:07:18;92884.94;;;23.35;50.38
12471;BME280;36499;46.484;13.832;2022-09-13T09:09:52;92885.59;;;23.13;51.07
12471;BME280;36499;46.484;13.832;2022-09-13T09:12:32;92882.25;;;23.08;50.55
12471;BME280;36499;46.484;13.832;2022-09-13T09:15:14;92891.22;;;23.12;51.40
12471;BME280;36499;46.484;13.832;2022-09-13T09:17:50;92876.41;;;23.06;51.36
12471;BME280;36499;46.484;13.832;2022-09-13T09:20:26;92879.69;;;23.16;52.11
12471;BME280;36499;46.484;13.832;2022-09-13T09:23:02;92874.16;;;22.99;51.17
12471;BME280;36499;46.484;13.832;2022-09-13T09:25:33;92879.31;;;23.23;51.96
12471;BME280;36499;46.484;13.832;2022-09-13T09:28:09;92876.66;;;23.23;51.05
12471;BME280;36499;46.484;13.832;2022-09-13T09:30:50;92883.06;;;23.49;51.23
12471;BME280;36499;46.484;13.832;2022-09-13T09:33:52;92880.50;;;23.71;49.97
12471;BME280;36499;46.484;13.832;2022-09-13T09:36:36;92874.00;;;23.77;48.92
12471;BME280;36499;46.484;13.832;2022-09-13T09:39:12;92872.63;;;23.53;49.78
12471;BME280;36499;46.484;13.832;2022-09-13T09:41:43;92867.38;;;23.88;50.04
12471;BME280;36499;46.484;13.832;2022-09-13T09:44:18;92864.22;;;24.09;49.40
12471;BME280;36499;46.484;13.832;2022-09-13T09:46:54;92862.31;;;24.01;48.43
12471;BME280;36499;46.484;13.832;2022-09-13T09:49:32;92867.41;;;24.11;48.31
12471;BME280;36499;46.484;13.832;2022-09-13T09:52:25;92864.41;;;24.12;46.89
12471;BME280;36499;46.484;13.832;2022-09-13T09:55:03;92854.94;;;24.20;46.78
12471;BME280;36499;46.484;13.832;2022-09-13T09:57:51;92845.88;;;24.43;46.26
12471;BME280;36499;46.484;13.832;2022-09-13T10:00:21;92838.72;;;24.74;48.22
12471;BME280;36499;46.484;13.832;2022-09-13T10:02:56;92842.00;;;24.71;47.91
12471;BME280;36499;46.484;13.832;2022-09-13T10:05:26;92845.00;;;24.78;48.06
12471;BME280;36499;46.484;13.832;2022-09-13T10:07:59;92839.59;;;24.92;47.18
12471;BME280;36499;46.484;13.832;2022-09-13T10:10:36;92838.78;;;25.14;46.75
12471;BME280;36499;46.484;13.832;2022-09-13T10:13:13;92831.25;;;25.16;47.05
12471;BME280;36499;46.484;13.832;2022-09-13T10:15:52;92824.06;;;25.25;46.41
12471;BME280;36499;46.484;13.832;2022-09-13T10:18:22;92820.91;;;25.62;45.83
12471;BME280;36499;46.484;13.832;2022-09-13T10:21:03;92815.75;;;25.74;46.52
12471;BME280;36499;46.484;13.832;2022-09-13T10:23:33;92815.91;;;25.87;45.10
12471;BME280;36499;46.484;13.832;2022-09-13T10:26:09;92809.63;;;26.00;44.88
12471;BME280;36499;46.484;13.832;2022-09-13T10:28:44;92808.53;;;26.09;44.22
12471;BME280;36499;46.484;13.832;2022-09-13T10:31:17;92807.59;;;26.31;43.73
12471;BME280;36499;46.484;13.832;2022-09-13T10:33:57;92805.03;;;26.60;43.65
12471;BME280;36499;46.484;13.832;2022-09-13T10:36:29;92804.22;;;26.86;44.56
12471;BME280;36499;46.484;13.832;2022-09-13T10:39:03;92798.81;;;27.03;41.09
12471;BME280;36499;46.484;13.832;2022-09-13T10:41:35;92797.81;;;27.16;44.35
12471;BME280;36499;46.484;13.832;2022-09-13T10:44:22;92798.59;;;27.54;43.37
12471;BME280;36499;46.484;13.832;2022-09-13T10:46:52;92794.19;;;27.79;43.53
12471;BME280;36499;46.484;13.832;2022-09-13T10:52:42;92786.47;;;27.78;42.04
12471;BME280;36499;46.484;13.832;2022-09-13T10:55:30;92788.09;;;27.91;42.71
12471;BME280;36499;46.484;13.832;2022-09-13T10:58:17;92792.50;;;28.16;42.63
12471;BME280;36499;46.484;13.832;2022-09-13T11:01:41;92796.19;;;28.11;41.07
12471;BME280;36499;46.484;13.832;2022-09-13T11:10:39;92783.78;;;28.73;39.88
12471;BME280;36499;46.484;13.832;2022-09-13T11:13:23;92782.41;;;28.67;38.89
12471;BME280;36499;46.484;13.832;2022-09-13T11:16:03;92782.59;;;28.82;41.30
12471;BME280;36499;46.484;13.832;2022-09-13T11:19:12;92771.25;;;28.65;39.69
12471;BME280;36499;46.484;13.832;2022-09-13T11:22:08;92768.47;;;28.73;39.06
12471;BME280;36499;46.484;13.832;2022-09-13T11:24:59;92766.38;;;28.79;39.57
12471;BME280;36499;46.484;13.832;2022-09-13T11:27:38;92777.59;;;28.93;40.00
12471;BME280;36499;46.484;13.832;2022-09-13T11:30:17;92781.28;;;29.00;40.95
12471;BME280;36499;46.484;13.832;2022-09-13T11:33:11;92787.31;;;28.97;41.38
12471;BME280;36499;46.484;13.832;2022-09-13T11:36:06;92789.16;;;29.18;40.95
12471;BME280;36499;46.484;13.832;2022-09-13T11:38:48;92779.44;;;29.37;38.26
12471;BME280;36499;46.484;13.832;2022-09-13T11:41:35;92776.75;;;29.49;37.68
12471;BME280;36499;46.484;13.832;2022-09-13T11:45:14;92778.53;;;29.58;37.82
12471;BME280;36499;46.484;13.832;2022-09-13T11:48:02;92776.50;;;29.79;38.14
12471;BME280;36499;46.484;13.832;2022-09-13T11:50:48;92778.47;;;30.06;39.14
12471;BME280;36499;46.484;13.832;2022-09-13T11:53:52;92778.34;;;30.15;38.43
12471;BME280;36499;46.484;13.832;2022-09-13T11:56:33;92778.53;;;29.94;37.46
12471;BME280;36499;46.484;13.832;2022-09-13T11:59:17;92786.47;;;29.78;37.42
12471;BME280;36499;46.484;13.832;2022-09-13T12:01:54;92783.69;;;29.50;37.66
12471;BME280;36499;46.484;13.832;2022-09-13T12:04:27;92788.63;;;29.36;38.21
12471;BME280;36499;46.484;13.832;2022-09-13T12:07:03;92772.16;;;29.26;39.83
12471;BME280;36499;46.484;13.832;2022-09-13T12:09:44;92778.06;;;29.19;40.42
12471;BME280;36499;46.484;13.832;2022-09-13T12:12:28;92778.94;;;29.11;39.70
12471;BME280;36499;46.484;13.832;2022-09-13T12:15:04;92765.06;;;28.97;40.52
12471;BME280;36499;46.484;13.832;2022-09-13T12:17:42;92767.06;;;28.88;42.48
12471;BME280;36499;46.484;13.832;2022-09-13T12:20:39;92765.59;;;28.78;39.82
12471;BME280;36499;46.484;13.832;2022-09-13T12:23:18;92773.25;;;28.68;40.09
12471;BME280;36499;46.484;13.832;2022-09-13T12:25:54;92764.38;;;28.55;40.89
12471;BME280;36499;46.484;13.832;2022-09-13T12:28:31;92766.03;;;28.47;41.89
12471;BME280;36499;46.484;13.832;2022-09-13T12:31:08;92764.94;;;28.48;40.60
12471;BME280;36499;46.484;13.832;2022-09-13T12:33:39;92761.03;;;28.46;40.87
12471;BME280;36499;46.484;13.832;2022-09-13T12:36:42;92763.97;;;28.32;40.88
12471;BME280;36499;46.484;13.832;2022-09-13T12:39:42;92773.28;;;28.14;39.63
12471;BME280;36499;46.484;13.832;2022-09-13T12:42:51;92764.91;;;27.95;41.14
12471;BME280;36499;46.484;13.832;2022-09-13T12:49:12;92773.81;;;28.07;39.55
12471;BME280;36499;46.484;13.832;2022-09-13T12:52:19;92778.38;;;28.28;40.66
12471;BME280;36499;46.484;13.832;2022-09-13T12:55:35;92773.53;;;28.42;41.50
12471;BME280;36499;46.484;13.832;2022-09-13T12:58:29;92770.00;;;28.29;39.87
12471;BME280;36499;46.484;13.832;2022-09-13T13:01:11;92774.34;;;28.54;40.07
12471;BME280;36499;46.484;13.832;2022-09-13T13:03:50;92774.72;;;28.32;40.21
12471;BME280;36499;46.484;13.832;2022-09-13T13:06:38;92778.16;;;28.66;38.83
12471;BME280;36499;46.484;13.832;2022-09-13T13:09:26;92785.91;;;28.67;39.49
12471;BME280;36499;46.484;13.832;2022-09-13T13:11:56;92779.34;;;28.77;39.18
12471;BME280;36499;46.484;13.832;2022-09-13T13:14:47;92774.56;;;28.61;39.07
12471;BME280;36499;46.484;13.832;2022-09-13T13:17:49;92774.56;;;28.49;40.05
12471;BME280;36499;46.484;13.832;2022-09-13T13:21:03;92781.97;;;28.65;39.76
12471;BME280;36499;46.484;13.832;2022-09-13T13:23:39;92775.47;;;28.53;39.52
12471;BME280;36499;46.484;13.832;2022-09-13T13:26:10;92772.00;;;28.53;39.29
12471;BME280;36499;46.484;13.832;2022-09-13T13:29:16;92787.69;;;28.42;38.95
12471;BME280;36499;46.484;13.832;2022-09-13T13:32:10;92785.56;;;28.36;39.29
12471;BME280;36499;46.484;13.832;2022-09-13T13:34:44;92788.00;;;28.29;39.77
12471;BME280;36499;46.484;13.832;2022-09-13T13:37:36;92780.31;;;28.39;40.12
12471;BME280;36499;46.484;13.832;2022-09-13T13:40:24;92786.84;;;28.50;40.39
12471;BME280;36499;46.484;13.832;2022-09-13T13:43:30;92793.22;;;28.46;41.53
12471;BME280;36499;46.484;13.832;2022-09-13T13:46:28;92780.56;;;28.46;40.66
12471;BME280;36499;46.484;13.832;2022-09-13T13:49:42;92789.69;;;28.66;39.99
12471;BME280;36499;46.484;13.832;2022-09-13T13:52:36;92785.84;;;28.76;41.45
12471;BME280;36499;46.484;13.832;2022-09-13T13:55:38;92780.34;;;28.84;40.15
12471;BME280;36499;46.484;13.832;2022-09-13T13:58:29;92783.44;;;29.19;41.21
12471;BME280;36499;46.484;13.832;2022-09-13T14:01:00;92783.41;;;29.07;41.18